Western Springs, IL (60558)

9:32 AM CDT on September 04, 2015 (GMT -0500)
Ridgewood | | Change Station
CLOSE
Current Station
Personal Weather Station
Location: Western Springs, IL
Elevation: 655 ft
Nearby Weather Stations

Elev 655 ft 41.79 °N, 87.90 °W | Updated 2 minutes ago

Partly Cloudy
Partly Cloudy
77.5 °F
Feels Like 79 °F
N
0.0
Wind Variable Wind from ESE
Gusts 0.0 mph

Today
High -- | Low -- °F
--% Chance of Precip.
Yesterday
High -- | Low -- °F
Precip. -- in
6:20 AM 7:20 PM
Waning Gibbous, 59% visible
Pressure 29.99 in
Visibility 10.0 miles
Clouds Few 1400 ft
Few 10000 ft
Scattered Clouds 25000 ft
Heat Index 79 °F
Dew Point 71 °F
Humidity 81%
Rainfall 0.00 in
Snow Depth Not available.
UV 2 out of 12
Pollen 8.90 out of 12
Air Quality Not available.
Flu Activity Not available.
METAR KMDW 041353Z 10006KT 10SM FEW014 FEW100 SCT250 24/19 A3001 RMK AO2 SLP154 T02390189
Pressure 29.99 in
Visibility 10.0 miles
Clouds Few 1400 ft
Few 10000 ft
Scattered Clouds 25000 ft
Heat Index 79 °F
Dew Point 71 °F
Humidity 81%
Rainfall 0.00 in
Snow Depth Not available.
UV 2 out of 12
Pollen 8.90 out of 12
Air Quality Not available.
Flu Activity Not available.
METAR KMDW 041353Z 10006KT 10SM FEW014 FEW100 SCT250 24/19 A3001 RMK AO2 SLP154 T02390189

10-Day Weather Forecast

×

Almanac

Astronomy

Sep. 04, 2015 Rise Set
Actual Time
Civil Twilight
Nautical Twilight
Astronomical Twilight
Moon
Length of Visible Light
Length of Day
Tomorrow will be .
, % of the Moon is Illuminated

Today's Extremes

State Highs State Lows

Community

WunderPhotos

Upload Photos

1,852,186 photos uploaded!

WunderBlogs® & News

Nearby

Air Quality

  Air Quality AQ Index Pollutant
Not available.

Snow Depth

Station Depth Elevation

Earthquake Activity

City Distance Mag. Time & Date
Minimum magnitude displayed is 2.5.

Coastal Water Temperatures

Place Temperature

Stations

Nearby Weather Stations

Station Location Temp. Windchill Dew Point Humidity Wind Precip. Elev Updated Type